Time;durP1;ratioP1;P1;durP2;ratioP2;P2;SDS_P1;SDS_P2;PMS_P1;PMS_P2;Temp;Humidity;BMP_temperature;BMP_pressure;BME280_temperature;BME280_humidity;BME280_pressure;Samples;Min_cycle;Max_cycle;Signal;HPM_P1;HPM_P2
2022/01/21 00:01:10;;;;;;;10.00;3.10;;;;;;;;;;5068124;28;20635;-77
2022/01/21 00:03:36;;;;;;;9.70;2.80;;;;;;;;;;5074392;28;20316;-77
2022/01/21 00:06:06;;;;;;;12.75;2.85;;;;;;;;;;5069128;28;20028;-77
2022/01/21 00:08:31;;;;;;;12.82;3.03;;;;;;;;;;5068602;28;20031;-78
2022/01/21 00:10:56;;;;;;;12.70;2.83;;;;;;;;;;5071141;28;20041;-77
2022/01/21 00:13:33;;;;;;;13.73;2.88;;;;;;;;;;5068234;28;20186;-77
2022/01/21 00:15:59;;;;;;;13.23;2.88;;;;;;;;;;5070347;28;20031;-77
2022/01/21 00:18:24;;;;;;;7.72;2.80;;;;;;;;;;5059673;28;20054;-78
2022/01/21 00:31:45;;;;;;;10.13;2.10;;;;;;;;;;5075704;28;20556;-78
2022/01/21 00:34:11;;;;;;;7.75;2.28;;;;;;;;;;5067532;28;20032;-78
2022/01/21 00:36:36;;;;;;;9.93;2.40;;;;;;;;;;5071232;28;20218;-78
2022/01/21 00:39:03;;;;;;;8.35;2.88;;;;;;;;;;5066835;28;20023;-79
2022/01/21 00:41:32;;;;;;;12.88;2.50;;;;;;;;;;5070248;28;20073;-78
2022/01/21 00:43:58;;;;;;;11.90;2.50;;;;;;;;;;5065287;28;20107;-78
2022/01/21 00:46:23;;;;;;;7.47;2.60;;;;;;;;;;5072528;28;20024;-78
2022/01/21 00:48:48;;;;;;;7.35;2.80;;;;;;;;;;5067877;28;20020;-78
2022/01/21 00:51:14;;;;;;;11.02;2.60;;;;;;;;;;5065097;28;20051;-77
2022/01/21 00:53:39;;;;;;;7.53;2.30;;;;;;;;;;5066490;28;20296;-78
2022/01/21 00:56:05;;;;;;;9.98;2.72;;;;;;;;;;5068587;28;20029;-78
2022/01/21 00:58:30;;;;;;;11.23;3.10;;;;;;;;;;5068568;28;20019;-78
2022/01/21 01:00:55;;;;;;;9.05;2.70;;;;;;;;;;5073146;28;20352;-77
2022/01/21 01:03:21;;;;;;;11.35;3.00;;;;;;;;;;5075249;28;20040;-77
2022/01/21 01:05:48;;;;;;;11.10;3.10;;;;;;;;;;5080498;28;20030;-77
2022/01/21 01:08:13;;;;;;;9.73;2.88;;;;;;;;;;5080557;28;20254;-78
2022/01/21 01:11:26;;;;;;;12.75;3.13;;;;;;;;;;5080550;28;20024;-79
2022/01/21 01:21:44;;;;;;;12.32;3.30;;;;;;;;;;5080695;28;20133;-80
2022/01/21 01:29:22;;;;;;;12.70;3.05;;;;;;;;;;5072194;28;20031;-78
2022/01/21 01:31:49;;;;;;;11.85;2.78;;;;;;;;;;5066672;28;20021;-78
2022/01/21 01:34:15;;;;;;;12.38;2.80;;;;;;;;;;5069905;28;20041;-79
2022/01/21 01:36:43;;;;;;;9.82;2.95;;;;;;;;;;5065410;28;20049;-79
2022/01/21 01:39:16;;;;;;;9.50;2.70;;;;;;;;;;5097326;28;20052;-78
2022/01/21 01:50:04;;;;;;;12.50;2.72;;;;;;;;;;5091271;28;20065;-78
2022/01/21 01:52:29;;;;;;;10.48;2.83;;;;;;;;;;5084321;28;20229;-77
2022/01/21 01:54:56;;;;;;;11.52;3.10;;;;;;;;;;5084372;28;20063;-78
2022/01/21 01:57:21;;;;;;;10.00;3.08;;;;;;;;;;5084176;28;20032;-77
2022/01/21 01:59:47;;;;;;;12.23;2.90;;;;;;;;;;5079525;28;20080;-78
2022/01/21 02:02:15;;;;;;;11.48;3.40;;;;;;;;;;5081881;28;20032;-77
2022/01/21 02:04:42;;;;;;;11.20;3.00;;;;;;;;;;5080375;28;20031;-78
2022/01/21 02:07:08;;;;;;;11.98;3.30;;;;;;;;;;5082703;28;20059;-78
2022/01/21 02:09:33;;;;;;;14.93;3.20;;;;;;;;;;5084136;28;20306;-78
2022/01/21 02:11:59;;;;;;;12.98;3.15;;;;;;;;;;5083669;28;20028;-77
2022/01/21 02:14:32;;;;;;;12.48;2.95;;;;;;;;;;5083815;28;20028;-78
2022/01/21 02:22:08;;;;;;;9.85;2.72;;;;;;;;;;5077655;28;20024;-78
2022/01/21 02:24:46;;;;;;;17.27;3.22;;;;;;;;;;5090589;28;20036;-78
2022/01/21 02:27:12;;;;;;;10.02;2.88;;;;;;;;;;5078912;28;20047;-78
2022/01/21 02:29:49;;;;;;;10.82;3.22;;;;;;;;;;5090361;28;20303;-77
2022/01/21 02:32:16;;;;;;;10.18;2.83;;;;;;;;;;5083530;28;20024;-78
2022/01/21 02:34:43;;;;;;;13.32;3.25;;;;;;;;;;5075450;28;20043;-77
2022/01/21 02:37:10;;;;;;;17.23;3.42;;;;;;;;;;5080711;28;20024;-78
2022/01/21 02:39:35;;;;;;;12.00;3.10;;;;;;;;;;5083703;28;20032;-78
2022/01/21 02:42:01;;;;;;;11.77;2.95;;;;;;;;;;5083421;28;20024;-78
2022/01/21 02:44:27;;;;;;;14.60;3.40;;;;;;;;;;5083500;28;20040;-78
2022/01/21 02:46:58;;;;;;;12.77;3.20;;;;;;;;;;5083262;28;20031;-78
2022/01/21 02:49:25;;;;;;;15.18;3.70;;;;;;;;;;5077459;28;20343;-78
2022/01/21 02:51:55;;;;;;;13.88;3.13;;;;;;;;;;5082885;28;20088;-79
2022/01/21 02:54:20;;;;;;;10.05;2.97;;;;;;;;;;5070406;28;20193;-77
2022/01/21 02:56:46;;;;;;;9.40;2.80;;;;;;;;;;5083313;28;20054;-78
2022/01/21 02:59:12;;;;;;;13.50;3.10;;;;;;;;;;5083249;28;20096;-78
2022/01/21 03:01:40;;;;;;;13.73;3.10;;;;;;;;;;5083090;28;20040;-77
2022/01/21 03:04:09;;;;;;;13.50;3.08;;;;;;;;;;5089399;28;20040;-77
2022/01/21 03:06:37;;;;;;;11.27;2.92;;;;;;;;;;5083095;28;20036;-78
2022/01/21 03:09:04;;;;;;;11.82;2.78;;;;;;;;;;5071337;28;20029;-77
2022/01/21 03:11:29;;;;;;;9.95;3.25;;;;;;;;;;5082983;28;20059;-78
2022/01/21 03:13:55;;;;;;;11.40;3.50;;;;;;;;;;5082887;28;20039;-79
2022/01/21 03:16:23;;;;;;;11.30;3.10;;;;;;;;;;5089165;28;20028;-78
2022/01/21 03:18:48;;;;;;;10.60;2.90;;;;;;;;;;5083063;28;20092;-78
2022/01/21 03:21:17;;;;;;;9.85;3.05;;;;;;;;;;5082623;28;20039;-78
2022/01/21 03:23:49;;;;;;;11.68;3.20;;;;;;;;;;5082314;28;20119;-78
2022/01/21 03:26:17;;;;;;;15.02;3.22;;;;;;;;;;5083277;28;20054;-78
2022/01/21 03:28:44;;;;;;;12.93;3.00;;;;;;;;;;5071504;28;20100;-78
2022/01/21 03:31:10;;;;;;;16.42;3.55;;;;;;;;;;5076428;28;20061;-78
2022/01/21 03:33:35;;;;;;;15.32;4.03;;;;;;;;;;5089292;28;20320;-77
2022/01/21 03:36:00;;;;;;;11.80;3.78;;;;;;;;;;5078461;28;20055;-77
2022/01/21 03:38:28;;;;;;;13.50;4.00;;;;;;;;;;5070564;28;20241;-77
2022/01/21 03:40:54;;;;;;;12.95;3.28;;;;;;;;;;5081284;28;20024;-77
2022/01/21 03:43:21;;;;;;;10.77;3.17;;;;;;;;;;5088935;28;20085;-77
2022/01/21 03:45:47;;;;;;;13.25;3.50;;;;;;;;;;5081525;28;20025;-77
2022/01/21 03:48:12;;;;;;;11.65;3.10;;;;;;;;;;5082295;28;20099;-80
2022/01/21 03:50:38;;;;;;;12.50;3.33;;;;;;;;;;5082138;28;20024;-77
2022/01/21 03:53:04;;;;;;;10.15;3.28;;;;;;;;;;5081885;28;20034;-77
2022/01/21 03:55:31;;;;;;;13.75;3.63;;;;;;;;;;5087613;28;20059;-77
2022/01/21 03:57:57;;;;;;;10.30;3.13;;;;;;;;;;5079895;28;20044;-77
2022/01/21 04:00:27;;;;;;;17.08;3.35;;;;;;;;;;5077533;28;20032;-77
2022/01/21 04:02:53;;;;;;;12.50;3.22;;;;;;;;;;5077957;28;20028;-78
2022/01/21 04:05:19;;;;;;;10.27;3.30;;;;;;;;;;5074439;28;20359;-77
2022/01/21 04:07:44;;;;;;;9.00;3.17;;;;;;;;;;5069357;28;20028;-77
2022/01/21 04:10:10;;;;;;;13.70;3.40;;;;;;;;;;5073588;28;20111;-77
2022/01/21 04:12:35;;;;;;;10.45;3.08;;;;;;;;;;5077612;28;20111;-77
2022/01/21 04:15:01;;;;;;;9.80;3.17;;;;;;;;;;5080536;28;20467;-77
2022/01/21 04:17:27;;;;;;;15.43;3.55;;;;;;;;;;5075457;28;20140;-77
2022/01/21 04:19:52;;;;;;;14.65;3.67;;;;;;;;;;5073548;28;20036;-77
2022/01/21 04:22:18;;;;;;;10.88;3.40;;;;;;;;;;5086908;28;20042;-77
2022/01/21 04:24:45;;;;;;;12.05;3.53;;;;;;;;;;5077944;28;20070;-77
2022/01/21 04:27:11;;;;;;;12.10;3.58;;;;;;;;;;5062770;28;20385;-77
2022/01/21 04:29:37;;;;;;;10.20;3.72;;;;;;;;;;5080767;28;20032;-77
2022/01/21 04:32:03;;;;;;;12.05;3.25;;;;;;;;;;5080038;28;20399;-77
2022/01/21 04:34:28;;;;;;;19.50;4.28;;;;;;;;;;5081189;28;20032;-77
2022/01/21 04:36:54;;;;;;;15.00;3.67;;;;;;;;;;5086273;28;20066;-77
2022/01/21 04:39:26;;;;;;;17.50;3.90;;;;;;;;;;5079752;28;20059;-77
2022/01/21 04:47:20;;;;;;;12.05;3.50;;;;;;;;;;5087124;28;20035;-77
2022/01/21 04:49:46;;;;;;;15.88;3.35;;;;;;;;;;5090916;28;20028;-77
2022/01/21 04:52:12;;;;;;;16.27;3.90;;;;;;;;;;5084740;28;20077;-77
2022/01/21 04:54:38;;;;;;;12.75;4.03;;;;;;;;;;5076873;28;20031;-77
2022/01/21 04:57:04;;;;;;;12.20;3.85;;;;;;;;;;5090031;28;20025;-78
2022/01/21 04:59:30;;;;;;;10.85;3.45;;;;;;;;;;5077021;28;20043;-79
2022/01/21 05:01:56;;;;;;;14.88;3.72;;;;;;;;;;5078108;28;20060;-78
2022/01/21 05:04:21;;;;;;;17.70;4.13;;;;;;;;;;5084726;28;20024;-79
2022/01/21 05:06:49;;;;;;;11.23;3.30;;;;;;;;;;5077898;28;20032;-79
2022/01/21 05:09:16;;;;;;;15.63;3.90;;;;;;;;;;5073111;28;20040;-78
2022/01/21 05:11:43;;;;;;;13.52;3.20;;;;;;;;;;5070305;28;20029;-77
2022/01/21 05:14:19;;;;;;;11.57;3.58;;;;;;;;;;5078679;28;20086;-78
2022/01/21 05:16:50;;;;;;;13.77;3.25;;;;;;;;;;5071615;28;20046;-77
2022/01/21 05:19:18;;;;;;;14.13;3.22;;;;;;;;;;5073254;28;20025;-78
2022/01/21 05:21:49;;;;;;;10.35;3.05;;;;;;;;;;5078689;28;20036;-78
2022/01/21 05:24:16;;;;;;;16.48;3.72;;;;;;;;;;5080608;28;20025;-77
2022/01/21 05:26:52;;;;;;;14.40;3.30;;;;;;;;;;5073589;28;20063;-77
2022/01/21 05:29:18;;;;;;;10.10;3.42;;;;;;;;;;5078472;28;20021;-79
2022/01/21 05:31:43;;;;;;;13.90;3.47;;;;;;;;;;5074311;28;20031;-78
2022/01/21 05:34:09;;;;;;;16.13;3.38;;;;;;;;;;5090932;28;20032;-78
2022/01/21 05:36:37;;;;;;;11.57;3.28;;;;;;;;;;5082788;28;20016;-77
2022/01/21 05:39:03;;;;;;;9.02;3.33;;;;;;;;;;5080362;28;20474;-77
2022/01/21 05:41:29;;;;;;;14.77;2.85;;;;;;;;;;5080272;28;20020;-77
2022/01/21 05:44:02;;;;;;;14.88;3.70;;;;;;;;;;5079798;28;20035;-77
2022/01/21 05:48:59;;;;;;;13.48;3.42;;;;;;;;;;5087191;28;20070;-77
2022/01/21 05:51:25;;;;;;;9.68;3.20;;;;;;;;;;5080024;28;20033;-76
2022/01/21 05:53:50;;;;;;;17.17;3.75;;;;;;;;;;5080158;28;20032;-77
2022/01/21 05:56:15;;;;;;;12.00;3.50;;;;;;;;;;5079528;28;20044;-77
2022/01/21 05:58:41;;;;;;;13.70;3.20;;;;;;;;;;5074837;28;20078;-77
2022/01/21 06:01:07;;;;;;;16.55;3.53;;;;;;;;;;5070458;28;20198;-77
2022/01/21 06:03:33;;;;;;;21.95;3.47;;;;;;;;;;5074131;28;20033;-77
2022/01/21 06:05:59;;;;;;;16.90;3.50;;;;;;;;;;5078399;28;20256;-76
2022/01/21 06:08:24;;;;;;;11.95;3.00;;;;;;;;;;5081682;28;20024;-77
2022/01/21 06:10:50;;;;;;;11.82;3.33;;;;;;;;;;5075186;28;20039;-78
2022/01/21 06:13:17;;;;;;;11.88;3.70;;;;;;;;;;5073751;28;20048;-77
2022/01/21 06:15:44;;;;;;;14.43;3.80;;;;;;;;;;5063921;28;20035;-75
2022/01/21 06:18:10;;;;;;;13.30;3.17;;;;;;;;;;5069140;28;20033;-75
2022/01/21 06:20:35;;;;;;;14.27;3.22;;;;;;;;;;5073671;28;20028;-75
2022/01/21 06:23:01;;;;;;;16.38;3.40;;;;;;;;;;5072494;28;20047;-75
2022/01/21 06:25:26;;;;;;;13.00;3.30;;;;;;;;;;5076651;28;20033;-75
2022/01/21 06:27:52;;;;;;;11.43;3.00;;;;;;;;;;5080386;28;20083;-75
2022/01/21 06:30:17;;;;;;;16.30;3.63;;;;;;;;;;5070636;28;20067;-75
2022/01/21 06:32:43;;;;;;;14.70;3.40;;;;;;;;;;5074947;28;20053;-75
2022/01/21 06:35:10;;;;;;;13.95;3.17;;;;;;;;;;5079845;28;20083;-76
2022/01/21 06:37:35;;;;;;;11.38;3.30;;;;;;;;;;5059015;28;20127;-76
2022/01/21 06:40:01;;;;;;;12.65;2.97;;;;;;;;;;5072330;28;20029;-82
2022/01/21 06:42:29;;;;;;;14.07;3.20;;;;;;;;;;5078600;28;20021;-76
2022/01/21 06:44:54;;;;;;;10.40;3.05;;;;;;;;;;5075097;28;20028;-80
2022/01/21 06:47:19;;;;;;;9.98;3.17;;;;;;;;;;5066697;28;20059;-75
2022/01/21 06:49:46;;;;;;;9.13;2.80;;;;;;;;;;5066474;28;20028;-76
2022/01/21 06:52:12;;;;;;;8.23;2.88;;;;;;;;;;5067666;28;20318;-77
2022/01/21 06:54:37;;;;;;;11.85;3.33;;;;;;;;;;5067891;28;20037;-75
2022/01/21 06:57:03;;;;;;;11.65;3.40;;;;;;;;;;5067657;28;20052;-75
2022/01/21 06:59:28;;;;;;;11.20;3.47;;;;;;;;;;5071311;28;20024;-77
2022/01/21 07:01:54;;;;;;;11.45;3.30;;;;;;;;;;5077823;28;20091;-76
2022/01/21 07:04:19;;;;;;;13.38;3.47;;;;;;;;;;5076799;28;20036;-77
2022/01/21 07:06:44;;;;;;;11.05;3.03;;;;;;;;;;5076013;28;20024;-76
2022/01/21 07:09:11;;;;;;;14.52;3.60;;;;;;;;;;5075141;28;20088;-75
2022/01/21 07:11:37;;;;;;;12.65;3.25;;;;;;;;;;5082977;28;20028;-76
2022/01/21 07:14:02;;;;;;;13.73;3.13;;;;;;;;;;5079313;28;20024;-80
2022/01/21 07:16:27;;;;;;;14.88;3.70;;;;;;;;;;5082660;28;20036;-77
2022/01/21 07:18:53;;;;;;;11.73;3.50;;;;;;;;;;5078660;28;20031;-81
2022/01/21 07:21:19;;;;;;;17.33;3.80;;;;;;;;;;5074398;28;20092;-78
2022/01/21 07:23:44;;;;;;;17.52;3.70;;;;;;;;;;5082714;28;20054;-80
2022/01/21 07:26:10;;;;;;;11.52;3.70;;;;;;;;;;5072623;28;20052;-83
2022/01/21 07:28:36;;;;;;;11.35;3.10;;;;;;;;;;5067217;28;20025;-86
2022/01/21 07:31:01;;;;;;;10.23;4.18;;;;;;;;;;5066486;28;20040;-78
2022/01/21 07:33:27;;;;;;;14.25;4.57;;;;;;;;;;5067046;28;20025;-76
2022/01/21 07:35:52;;;;;;;17.92;5.15;;;;;;;;;;5069845;28;20045;-78
2022/01/21 07:38:18;;;;;;;21.65;7.32;;;;;;;;;;5066795;28;20040;-82
2022/01/21 07:40:43;;;;;;;25.98;7.45;;;;;;;;;;5069350;28;20111;-78
2022/01/21 07:43:09;;;;;;;24.73;7.43;;;;;;;;;;5069866;28;20043;-77
2022/01/21 07:45:34;;;;;;;19.13;6.10;;;;;;;;;;5069218;28;20095;-83
2022/01/21 07:48:00;;;;;;;16.02;5.88;;;;;;;;;;5073031;28;20050;-76
2022/01/21 07:50:25;;;;;;;15.20;5.45;;;;;;;;;;5083617;28;20055;-80
2022/01/21 07:52:50;;;;;;;15.45;4.57;;;;;;;;;;5079238;28;20029;-80
2022/01/21 07:55:16;;;;;;;14.20;4.32;;;;;;;;;;5071158;28;20036;-77
2022/01/21 07:57:41;;;;;;;16.52;4.25;;;;;;;;;;5081173;28;20028;-83
2022/01/21 08:00:08;;;;;;;15.50;3.97;;;;;;;;;;5070533;28;20033;-77
2022/01/21 08:02:34;;;;;;;13.48;3.25;;;;;;;;;;5076747;28;20056;-86
2022/01/21 08:05:02;;;;;;;15.90;3.80;;;;;;;;;;5081386;28;20098;-79
2022/01/21 08:07:28;;;;;;;18.02;3.92;;;;;;;;;;5073278;28;20024;-80
2022/01/21 08:09:53;;;;;;;15.40;3.40;;;;;;;;;;5078482;28;20089;-74
2022/01/21 08:12:20;;;;;;;16.30;3.40;;;;;;;;;;5082598;28;20120;-77
2022/01/21 08:14:45;;;;;;;12.60;3.28;;;;;;;;;;5077323;28;20032;-74
2022/01/21 08:17:11;;;;;;;12.38;3.58;;;;;;;;;;5070802;28;20381;-76
2022/01/21 08:19:36;;;;;;;15.75;3.92;;;;;;;;;;5076459;28;20069;-80
2022/01/21 08:22:02;;;;;;;14.95;3.53;;;;;;;;;;5085236;28;20028;-77
2022/01/21 08:24:27;;;;;;;15.43;3.95;;;;;;;;;;5074392;28;20032;-76
2022/01/21 08:26:53;;;;;;;15.25;4.53;;;;;;;;;;5077396;28;20090;-79
2022/01/21 08:29:18;;;;;;;14.88;4.53;;;;;;;;;;5073920;28;20036;-77
2022/01/21 08:31:45;;;;;;;13.35;3.97;;;;;;;;;;5080290;28;20028;-76
2022/01/21 08:34:11;;;;;;;17.30;4.80;;;;;;;;;;5079359;28;20028;-77
2022/01/21 08:36:38;;;;;;;13.13;4.75;;;;;;;;;;5076071;28;20036;-76
2022/01/21 08:39:04;;;;;;;17.17;5.10;;;;;;;;;;5062112;28;20088;-81
2022/01/21 08:41:30;;;;;;;13.32;4.30;;;;;;;;;;5061814;28;20035;-76
2022/01/21 08:43:55;;;;;;;15.68;4.82;;;;;;;;;;5076487;28;20056;-78
2022/01/21 08:46:22;;;;;;;15.63;4.90;;;;;;;;;;5072333;28;20033;-77
2022/01/21 08:48:47;;;;;;;12.40;4.28;;;;;;;;;;5080992;28;20028;-75
2022/01/21 08:51:19;;;;;;;13.32;4.72;;;;;;;;;;5078700;28;20059;-79
2022/01/21 08:53:46;;;;;;;19.27;4.90;;;;;;;;;;5075624;28;20227;-76
2022/01/21 08:56:15;;;;;;;18.40;4.60;;;;;;;;;;5074107;28;20039;-76
2022/01/21 08:58:42;;;;;;;12.88;4.68;;;;;;;;;;5074943;28;20034;-80
2022/01/21 09:01:09;;;;;;;15.60;4.55;;;;;;;;;;5079078;28;20052;-76
2022/01/21 09:03:36;;;;;;;15.50;4.93;;;;;;;;;;5070636;28;20111;-76
2022/01/21 09:06:01;;;;;;;19.88;4.35;;;;;;;;;;5079925;28;20081;-78
2022/01/21 09:08:30;;;;;;;13.98;4.43;;;;;;;;;;5073966;28;20036;-76
2022/01/21 09:10:57;;;;;;;16.73;4.90;;;;;;;;;;5079485;28;20037;-76
2022/01/21 09:13:26;;;;;;;16.63;4.90;;;;;;;;;;5076595;28;20056;-75
2022/01/21 09:15:51;;;;;;;17.88;5.28;;;;;;;;;;5079703;28;20071;-77
2022/01/21 09:18:19;;;;;;;16.88;4.80;;;;;;;;;;5076888;28;20025;-77
2022/01/21 09:20:46;;;;;;;16.20;4.90;;;;;;;;;;5076946;28;20084;-75
2022/01/21 09:23:11;;;;;;;16.77;4.60;;;;;;;;;;5068671;28;20273;-75
2022/01/21 09:25:37;;;;;;;14.18;5.18;;;;;;;;;;5073145;28;20343;-76
2022/01/21 09:28:03;;;;;;;21.33;5.40;;;;;;;;;;5082786;28;20239;-76
2022/01/21 09:30:28;;;;;;;12.13;4.93;;;;;;;;;;5078654;28;20088;-76
2022/01/21 09:32:54;;;;;;;14.07;4.93;;;;;;;;;;5079376;28;20027;-77
2022/01/21 09:35:19;;;;;;;17.45;6.18;;;;;;;;;;5079435;28;20427;-76
2022/01/21 09:37:45;;;;;;;21.58;5.13;;;;;;;;;;5078068;28;20030;-76
2022/01/21 09:40:11;;;;;;;15.43;5.35;;;;;;;;;;5079498;28;20325;-79
2022/01/21 09:42:37;;;;;;;17.52;5.07;;;;;;;;;;5073561;28;20092;-76
2022/01/21 09:45:09;;;;;;;19.95;5.60;;;;;;;;;;5077273;28;20098;-77
2022/01/21 09:47:49;;;;;;;18.95;5.78;;;;;;;;;;5072060;28;20047;-77
2022/01/21 09:50:17;;;;;;;15.80;5.50;;;;;;;;;;5077967;28;20024;-77
2022/01/21 09:52:46;;;;;;;19.00;5.57;;;;;;;;;;5071801;28;20103;-76
2022/01/21 09:55:12;;;;;;;15.80;5.40;;;;;;;;;;5081205;28;20278;-77
2022/01/21 09:57:40;;;;;;;14.30;5.13;;;;;;;;;;5074646;28;20224;-76
2022/01/21 10:00:07;;;;;;;16.25;5.22;;;;;;;;;;5078528;28;20321;-77
2022/01/21 10:02:33;;;;;;;19.52;5.40;;;;;;;;;;5074468;28;20102;-75
2022/01/21 10:04:59;;;;;;;12.90;4.28;;;;;;;;;;5079587;28;20032;-75
2022/01/21 10:07:25;;;;;;;21.77;5.32;;;;;;;;;;5081506;28;20059;-76
2022/01/21 10:09:53;;;;;;;16.63;5.05;;;;;;;;;;5060989;28;20227;-76
2022/01/21 10:12:18;;;;;;;16.10;5.45;;;;;;;;;;5072332;28;20025;-77
2022/01/21 10:14:45;;;;;;;19.25;5.88;;;;;;;;;;5083690;28;20032;-79
2022/01/21 10:17:11;;;;;;;17.63;5.30;;;;;;;;;;5070794;28;20311;-76
2022/01/21 10:19:39;;;;;;;13.65;5.43;;;;;;;;;;5075766;28;20031;-76
2022/01/21 10:22:12;;;;;;;20.63;5.95;;;;;;;;;;5083651;28;20051;-76
2022/01/21 10:24:51;;;;;;;16.50;5.50;;;;;;;;;;5075119;28;20340;-76
2022/01/21 10:27:36;;;;;;;17.13;5.60;;;;;;;;;;5078696;28;20032;-78
2022/01/21 10:30:06;;;;;;;17.05;5.80;;;;;;;;;;5076166;28;20028;-78
2022/01/21 10:32:40;;;;;;;17.70;5.40;;;;;;;;;;5056421;28;20108;-84
2022/01/21 10:35:30;;;;;;;16.77;6.18;;;;;;;;;;5085596;28;20027;-88
2022/01/21 10:37:58;;;;;;;24.60;7.43;;;;;;;;;;5072099;28;20195;-79
2022/01/21 10:40:34;;;;;;;15.07;5.65;;;;;;;;;;5075178;28;20028;-81
2022/01/21 10:43:17;;;;;;;12.20;4.68;;;;;;;;;;5080232;28;20332;-77
2022/01/21 10:45:54;;;;;;;14.98;4.63;;;;;;;;;;5082289;28;20090;-80
2022/01/21 10:48:20;;;;;;;13.25;4.70;;;;;;;;;;5071117;28;20070;-79
2022/01/21 10:50:46;;;;;;;13.48;4.20;;;;;;;;;;5079522;28;20228;-78
2022/01/21 10:53:29;;;;;;;12.98;4.35;;;;;;;;;;5076135;28;20088;-79
2022/01/21 10:56:07;;;;;;;15.45;4.57;;;;;;;;;;5077186;28;20811;-80
2022/01/21 10:58:41;;;;;;;11.23;3.75;;;;;;;;;;5087698;28;20037;-83
2022/01/21 11:01:12;;;;;;;14.65;4.68;;;;;;;;;;5075033;28;20044;-78
2022/01/21 11:04:01;;;;;;;12.75;4.18;;;;;;;;;;5081055;28;20096;-80
2022/01/21 11:06:34;;;;;;;15.85;4.00;;;;;;;;;;5067326;28;20025;-86
2022/01/21 11:09:14;;;;;;;14.35;4.75;;;;;;;;;;5077589;28;20052;-87
2022/01/21 11:11:40;;;;;;;14.45;4.63;;;;;;;;;;5079643;28;20255;-87
2022/01/21 11:14:15;;;;;;;17.77;5.43;;;;;;;;;;5077237;28;20032;-81
2022/01/21 11:16:43;;;;;;;19.95;5.20;;;;;;;;;;5077265;28;20025;-81
2022/01/21 11:19:12;;;;;;;18.85;5.50;;;;;;;;;;5077752;28;20043;-80
2022/01/21 11:21:53;;;;;;;14.98;4.95;;;;;;;;;;5088294;28;20032;-77
2022/01/21 11:24:21;;;;;;;19.05;5.60;;;;;;;;;;5075292;28;20087;-82
2022/01/21 11:27:13;;;;;;;23.55;5.40;;;;;;;;;;5077292;28;20048;-81
2022/01/21 11:29:40;;;;;;;16.88;5.00;;;;;;;;;;5083962;28;20090;-84
2022/01/21 11:32:07;;;;;;;18.75;4.90;;;;;;;;;;5074353;28;20056;-77
2022/01/21 11:34:35;;;;;;;18.40;5.13;;;;;;;;;;5076820;28;20082;-81
2022/01/21 11:37:02;;;;;;;20.08;5.38;;;;;;;;;;5080549;28;20029;-79
2022/01/21 11:39:29;;;;;;;20.30;4.80;;;;;;;;;;5073621;28;20154;-79
2022/01/21 11:41:56;;;;;;;14.80;4.88;;;;;;;;;;5077795;28;20028;-87
2022/01/21 11:44:25;;;;;;;19.80;4.68;;;;;;;;;;5059558;28;20380;-81
2022/01/21 11:49:26;;;;;;;13.13;4.40;;;;;;;;;;5075909;28;20092;-87
2022/01/21 11:52:11;;;;;;;14.15;4.40;;;;;;;;;;5076361;28;20028;-89
2022/01/21 11:54:38;;;;;;;19.55;5.15;;;;;;;;;;5078462;28;20131;-80
2022/01/21 11:57:06;;;;;;;19.05;4.90;;;;;;;;;;5081050;28;20029;-80
2022/01/21 12:01:58;;;;;;;17.58;4.15;;;;;;;;;;5082242;28;20042;-86
2022/01/21 12:04:29;;;;;;;16.98;4.57;;;;;;;;;;5080999;28;20036;-78
2022/01/21 12:06:55;;;;;;;18.92;5.13;;;;;;;;;;5079031;28;20382;-85
2022/01/21 12:09:55;;;;;;;14.80;4.63;;;;;;;;;;5075280;28;20047;-80
2022/01/21 12:12:25;;;;;;;15.52;5.20;;;;;;;;;;5071408;28;20029;-80
2022/01/21 12:14:58;;;;;;;13.52;4.50;;;;;;;;;;5078473;28;20035;-79
2022/01/21 12:17:43;;;;;;;14.00;5.05;;;;;;;;;;5072726;28;20025;-79
2022/01/21 12:20:09;;;;;;;18.65;4.82;;;;;;;;;;5081494;28;20031;-79
2022/01/21 12:22:35;;;;;;;20.58;4.50;;;;;;;;;;5081128;28;20025;-78
2022/01/21 12:25:15;;;;;;;17.95;5.03;;;;;;;;;;5072879;28;20203;-77
2022/01/21 12:28:16;;;;;;;16.88;4.60;;;;;;;;;;5054461;28;20042;-77
2022/01/21 12:30:53;;;;;;;16.00;5.07;;;;;;;;;;5041796;28;20086;-77
2022/01/21 12:33:19;;;;;;;15.63;4.95;;;;;;;;;;5050874;28;20227;-79
2022/01/21 12:35:46;;;;;;;19.45;5.07;;;;;;;;;;5080517;28;20032;-79
2022/01/21 12:41:02;;;;;;;14.00;5.38;;;;;;;;;;5080989;28;20021;-79
2022/01/21 12:44:07;;;;;;;19.63;5.60;;;;;;;;;;5074960;28;20070;-79
2022/01/21 12:46:39;;;;;;;13.05;5.20;;;;;;;;;;5052615;28;20040;-79
2022/01/21 12:49:31;;;;;;;16.75;5.30;;;;;;;;;;5080731;28;20033;-79
2022/01/21 12:57:27;;;;;;;12.50;4.25;;;;;;;;;;5074282;28;20027;-79
2022/01/21 13:00:07;;;;;;;15.18;4.25;;;;;;;;;;5087797;28;20059;-79
2022/01/21 13:02:33;;;;;;;16.92;4.30;;;;;;;;;;5075515;28;20109;-78
2022/01/21 13:05:22;;;;;;;20.08;5.05;;;;;;;;;;5087691;28;20033;-79
2022/01/21 13:07:56;;;;;;;16.83;5.03;;;;;;;;;;5086985;28;20052;-79
2022/01/21 13:10:27;;;;;;;12.38;4.70;;;;;;;;;;5085491;28;20020;-79
2022/01/21 13:13:35;;;;;;;15.43;4.47;;;;;;;;;;5081693;28;20021;-78
2022/01/21 13:15:54;;;;;;;17.42;4.35;;;;;;;;;;5076543;28;20033;-78
2022/01/21 13:18:31;;;;;;;18.23;4.60;;;;;;;;;;5046546;28;20228;-79
2022/01/21 13:21:00;;;;;;;9.82;4.07;;;;;;;;;;5080499;28;20092;-79
2022/01/21 13:23:45;;;;;;;15.10;4.30;;;;;;;;;;5069277;28;20083;-79
2022/01/21 13:26:23;;;;;;;18.92;4.70;;;;;;;;;;5087139;28;20032;-79
2022/01/21 13:29:04;;;;;;;14.07;4.38;;;;;;;;;;5074627;28;20255;-79
2022/01/21 13:31:41;;;;;;;15.88;5.63;;;;;;;;;;5080352;28;20077;-79
2022/01/21 13:34:15;;;;;;;16.45;6.07;;;;;;;;;;5080296;28;20028;-79
2022/01/21 13:36:50;;;;;;;24.45;5.45;;;;;;;;;;5097450;28;20370;-79
2022/01/21 13:39:21;;;;;;;14.52;4.82;;;;;;;;;;5080838;28;20028;-80
2022/01/21 13:42:20;;;;;;;15.73;5.13;;;;;;;;;;5080528;28;20339;-81
2022/01/21 13:44:57;;;;;;;17.27;5.15;;;;;;;;;;5075937;28;20322;-79
2022/01/21 13:47:36;;;;;;;17.10;4.53;;;;;;;;;;5084866;28;20093;-79
2022/01/21 13:50:22;;;;;;;17.95;4.65;;;;;;;;;;5074223;28;20025;-80
2022/01/21 13:52:58;;;;;;;15.88;5.68;;;;;;;;;;5076156;28;20021;-81
2022/01/21 13:55:29;;;;;;;20.52;5.72;;;;;;;;;;5080994;28;20247;-78
2022/01/21 13:58:01;;;;;;;15.45;6.03;;;;;;;;;;5085523;28;20043;-78
2022/01/21 14:00:35;;;;;;;16.38;5.40;;;;;;;;;;5101076;28;20085;-78
2022/01/21 14:03:07;;;;;;;15.87;5.53;;;;;;;;;;5070103;28;20082;-78
2022/01/21 14:05:50;;;;;;;14.35;6.20;;;;;;;;;;5080207;28;20348;-78
2022/01/21 14:08:29;;;;;;;15.60;5.47;;;;;;;;;;5081916;28;20031;-78
2022/01/21 14:11:00;;;;;;;16.05;5.30;;;;;;;;;;5082429;28;20027;-79
2022/01/21 14:13:31;;;;;;;11.43;4.38;;;;;;;;;;5083858;28;20312;-79
2022/01/21 14:15:59;;;;;;;12.07;2.97;;;;;;;;;;5080401;28;20328;-81
2022/01/21 14:18:32;;;;;;;11.82;4.50;;;;;;;;;;5080029;28;20055;-79
2022/01/21 14:21:12;;;;;;;12.05;4.47;;;;;;;;;;5079536;28;20032;-79
2022/01/21 14:23:38;;;;;;;15.75;4.20;;;;;;;;;;5080395;28;20020;-80
2022/01/21 14:26:05;;;;;;;10.77;4.13;;;;;;;;;;5080109;28;20028;-81
2022/01/21 14:28:41;;;;;;;11.07;4.32;;;;;;;;;;5079964;28;20265;-81
2022/01/21 14:31:24;;;;;;;14.75;4.35;;;;;;;;;;5086228;28;20036;-80
2022/01/21 14:33:49;;;;;;;11.00;4.13;;;;;;;;;;5057862;28;20032;-79
2022/01/21 14:36:14;;;;;;;17.60;4.72;;;;;;;;;;5079501;28;20193;-80
2022/01/21 14:38:51;;;;;;;19.50;4.65;;;;;;;;;;5080171;28;20095;-80
2022/01/21 14:41:18;;;;;;;11.88;4.43;;;;;;;;;;5088446;28;20042;-80
2022/01/21 14:43:52;;;;;;;18.27;5.05;;;;;;;;;;5083520;28;20105;-79
2022/01/21 14:46:26;;;;;;;18.58;5.13;;;;;;;;;;5083686;28;20028;-80
2022/01/21 14:48:56;;;;;;;12.30;4.28;;;;;;;;;;5086838;28;20024;-80
2022/01/21 14:51:46;;;;;;;19.63;4.85;;;;;;;;;;5085397;28;20112;-80
2022/01/21 14:54:19;;;;;;;12.95;4.18;;;;;;;;;;5077588;28;20028;-80
2022/01/21 14:57:04;;;;;;;12.73;4.10;;;;;;;;;;5084150;28;20216;-80
2022/01/21 14:59:30;;;;;;;15.77;4.32;;;;;;;;;;5086002;28;20247;-80
2022/01/21 15:02:06;;;;;;;14.25;4.22;;;;;;;;;;5082969;28;20052;-80
2022/01/21 15:04:35;;;;;;;11.43;4.10;;;;;;;;;;5083311;28;20339;-80
2022/01/21 15:07:15;;;;;;;16.63;4.22;;;;;;;;;;5082743;28;20017;-80
2022/01/21 15:09:49;;;;;;;10.75;4.03;;;;;;;;;;5083132;28;20031;-80
2022/01/21 15:15:31;;;;;;;15.68;4.18;;;;;;;;;;5081869;28;20218;-80
2022/01/21 15:17:58;;;;;;;12.07;4.38;;;;;;;;;;5089765;28;20080;-80
2022/01/21 15:20:29;;;;;;;12.02;4.28;;;;;;;;;;5065082;28;20209;-80
2022/01/21 15:22:55;;;;;;;15.68;4.47;;;;;;;;;;5076170;28;20032;-80
2022/01/21 15:25:20;;;;;;;13.05;3.65;;;;;;;;;;5082652;28;20084;-80
2022/01/21 15:27:45;;;;;;;16.60;4.10;;;;;;;;;;5082175;28;20028;-80
2022/01/21 15:30:11;;;;;;;15.10;3.78;;;;;;;;;;5082750;28;20224;-79
2022/01/21 15:32:37;;;;;;;12.13;4.10;;;;;;;;;;5087610;28;20024;-79
2022/01/21 15:35:03;;;;;;;11.50;3.78;;;;;;;;;;5083974;28;20028;-79
2022/01/21 15:37:29;;;;;;;11.38;3.85;;;;;;;;;;5081960;28;20344;-79
2022/01/21 15:39:54;;;;;;;15.45;4.65;;;;;;;;;;5086615;28;20028;-79
2022/01/21 15:42:20;;;;;;;15.27;4.25;;;;;;;;;;5084677;28;20024;-80
2022/01/21 15:44:45;;;;;;;12.35;3.85;;;;;;;;;;5082216;28;20032;-79